Time;durP1;ratioP1;P1;durP2;ratioP2;P2;SDS_P1;SDS_P2;PMS_P1;PMS_P2;Temp;Humidity;BMP_temperature;BMP_pressure;BME280_temperature;BME280_humidity;BME280_pressure;Samples;Min_cycle;Max_cycle;Signal;HPM_P1;HPM_P2
2023/01/10 00:00:47;;;;;;;45.30;19.08;;;5.00;99.90;;;;;;5050417;28;20072;-79
2023/01/10 00:03:17;;;;;;;35.78;14.07;;;5.00;99.90;;;;;;5024622;28;20048;-78
2023/01/10 00:05:43;;;;;;;26.92;12.57;;;5.00;99.90;;;;;;5031090;28;20040;-79
2023/01/10 00:08:15;;;;;;;24.02;11.50;;;4.90;99.90;;;;;;5035368;28;20915;-78
2023/01/10 00:10:41;;;;;;;27.48;12.70;;;5.00;99.90;;;;;;5025932;28;20340;-79
2023/01/10 00:13:25;;;;;;;25.02;11.93;;;5.00;99.90;;;;;;5023290;28;20273;-78
2023/01/10 00:15:54;;;;;;;23.85;12.80;;;5.00;99.90;;;;;;5028874;28;20712;-79
2023/01/10 00:18:21;;;;;;;31.90;13.40;;;5.00;99.90;;;;;;5014138;28;20485;-78
2023/01/10 00:20:48;;;;;;;29.83;12.73;;;5.00;99.90;;;;;;5028693;28;20280;-78
2023/01/10 00:23:18;;;;;;;28.17;12.85;;;5.00;99.90;;;;;;5049895;28;20101;-78
2023/01/10 00:25:45;;;;;;;26.58;12.38;;;5.00;99.90;;;;;;5031867;28;20493;-79
2023/01/10 00:31:05;;;;;;;31.63;14.48;;;5.00;99.90;;;;;;5037804;28;20475;-79
2023/01/10 00:33:33;;;;;;;22.63;12.02;;;5.00;99.90;;;;;;5048892;28;20055;-78
2023/01/10 00:36:05;;;;;;;31.15;14.00;;;5.00;99.90;;;;;;5053509;28;20052;-79
2023/01/10 00:38:33;;;;;;;28.10;12.27;;;5.00;99.90;;;;;;5058678;28;20557;-78
2023/01/10 00:41:00;;;;;;;26.33;12.23;;;5.00;99.90;;;;;;5025159;28;20075;-78
2023/01/10 00:46:12;;;;;;;29.00;13.18;;;5.00;99.90;;;;;;5038423;28;20048;-78
2023/01/10 00:48:40;;;;;;;27.70;12.32;;;5.00;99.90;;;;;;5036411;28;20512;-78
2023/01/10 00:51:06;;;;;;;26.33;13.40;;;5.00;99.90;;;;;;5008101;28;20040;-77
2023/01/10 00:53:33;;;;;;;26.88;14.43;;;5.00;99.90;;;;;;5017796;28;20055;-78
2023/01/10 00:56:00;;;;;;;31.88;16.27;;;5.00;99.90;;;;;;5037854;28;20395;-77
2023/01/10 00:58:26;;;;;;;34.30;17.02;;;5.10;99.90;;;;;;5018037;28;20050;-78
2023/01/10 01:00:53;;;;;;;38.17;18.70;;;5.10;99.90;;;;;;5034067;28;20053;-77
2023/01/10 01:03:22;;;;;;;42.70;20.42;;;5.10;99.90;;;;;;5009681;28;20072;-77
2023/01/10 01:05:48;;;;;;;40.63;19.88;;;5.10;99.90;;;;;;5031526;28;20060;-77
2023/01/10 01:08:21;;;;;;;40.97;18.92;;;5.00;99.90;;;;;;5041496;28;20122;-77
2023/01/10 01:10:48;;;;;;;39.55;18.75;;;5.00;99.90;;;;;;5033336;28;20513;-78
2023/01/10 01:13:18;;;;;;;28.48;14.52;;;5.00;99.90;;;;;;5020894;28;20041;-78
2023/01/10 01:15:44;;;;;;;29.42;15.60;;;5.00;99.90;;;;;;5039651;28;20055;-76
2023/01/10 01:18:14;;;;;;;23.85;12.07;;;5.00;99.90;;;;;;5038228;28;20514;-77
2023/01/10 01:20:44;;;;;;;22.52;10.48;;;5.00;99.90;;;;;;5031405;28;20513;-76
2023/01/10 01:23:12;;;;;;;29.35;13.48;;;5.00;99.90;;;;;;5035024;28;20048;-77
2023/01/10 01:25:39;;;;;;;40.00;18.30;;;5.00;99.90;;;;;;5026320;28;20036;-79
2023/01/10 01:28:06;;;;;;;41.53;21.30;;;5.10;99.90;;;;;;5038572;28;20075;-77
2023/01/10 01:30:33;;;;;;;45.42;21.83;;;5.10;99.90;;;;;;5018213;28;20175;-77
2023/01/10 01:33:00;;;;;;;51.90;21.25;;;5.10;99.90;;;;;;5023176;28;20148;-77
2023/01/10 01:35:27;;;;;;;51.75;20.42;;;5.10;99.90;;;;;;5055046;28;20047;-78
2023/01/10 01:37:53;;;;;;;45.83;22.08;;;5.10;99.90;;;;;;5019770;28;20041;-77
2023/01/10 01:40:22;;;;;;;53.13;25.58;;;5.10;99.90;;;;;;5044059;28;20041;-78
2023/01/10 01:42:54;;;;;;;53.55;23.77;;;5.10;99.90;;;;;;5060017;28;20106;-78
2023/01/10 01:45:31;;;;;;;66.13;28.23;;;5.10;99.90;;;;;;5035851;28;20040;-78
2023/01/10 01:47:57;;;;;;;69.63;30.75;;;5.10;99.90;;;;;;5042961;28;20040;-78
2023/01/10 01:50:32;;;;;;;58.60;23.95;;;5.10;99.90;;;;;;5031006;28;20519;-78
2023/01/10 01:53:00;;;;;;;;;;;5.10;99.90;;;;;;5036372;28;20866;-80
2023/01/10 01:55:30;;;;;;;62.25;28.33;;;5.10;99.90;;;;;;5061659;28;19921;-79
2023/01/10 01:58:00;;;;;;;77.15;31.15;;;5.10;99.90;;;;;;5041935;28;20040;-77
2023/01/10 02:00:27;;;;;;;73.35;32.90;;;5.10;99.90;;;;;;5042968;28;20055;-78
2023/01/10 02:02:56;;;;;;;70.80;31.70;;;5.10;99.90;;;;;;5038200;28;20767;-80
2023/01/10 02:05:30;;;;;;;;;;;5.10;99.90;;;;;;5037254;28;20045;-78
2023/01/10 02:07:58;;;;;;;67.75;29.70;;;5.10;99.90;;;;;;5051223;28;19925;-77
2023/01/10 02:10:45;;;;;;;57.67;29.05;;;5.10;99.90;;;;;;5035602;28;20045;-77
2023/01/10 02:13:14;;;;;;;68.28;30.73;;;5.10;99.90;;;;;;5048811;28;20074;-79
2023/01/10 02:15:41;;;;;;;58.10;25.08;;;5.10;99.90;;;;;;5035007;28;20440;-78
2023/01/10 02:18:08;;;;;;;65.05;26.65;;;5.20;99.90;;;;;;5036172;28;20099;-78
2023/01/10 02:21:13;;;;;;;66.90;27.92;;;5.10;99.90;;;;;;5036990;28;20059;-78
2023/01/10 02:24:06;;;;;;;69.20;28.60;;;5.20;99.90;;;;;;5035196;28;20074;-77
2023/01/10 02:26:58;;;;;;;70.43;34.67;;;5.10;99.90;;;;;;5028836;28;20040;-77
2023/01/10 02:29:43;;;;;;;79.60;32.58;;;5.10;99.90;;;;;;5030715;28;20048;-77
2023/01/10 02:32:47;;;;;;;70.43;31.15;;;5.20;99.90;;;;;;5030988;28;20058;-78
2023/01/10 02:36:03;;;;;;;80.63;33.03;;;5.10;99.90;;;;;;5031254;28;20627;-78
2023/01/10 02:38:54;;;;;;;79.25;33.85;;;5.10;99.90;;;;;;5040515;28;20135;-78
2023/01/10 02:41:35;;;;;;;83.30;35.88;;;5.20;99.90;;;;;;5004448;28;20047;-77
2023/01/10 02:44:10;;;;;;;75.95;32.42;;;5.10;99.90;;;;;;5031618;28;20136;-78
2023/01/10 02:46:38;;;;;;;83.68;33.55;;;5.10;99.90;;;;;;5025883;28;20135;-77
2023/01/10 02:49:05;;;;;;;79.47;30.67;;;5.20;99.90;;;;;;5036661;28;20566;-78
2023/01/10 02:51:32;;;;;;;67.15;28.45;;;5.10;99.90;;;;;;5056853;28;20440;-78
2023/01/10 02:54:12;;;;;;;67.05;27.73;;;5.10;99.90;;;;;;5038526;28;20049;-77
2023/01/10 02:56:58;;;;;;;64.72;28.77;;;5.10;99.90;;;;;;5034653;28;20059;-78
2023/01/10 02:59:45;;;;;;;68.43;27.60;;;5.10;99.90;;;;;;5035638;28;20143;-78
2023/01/10 03:02:42;;;;;;;66.75;27.15;;;5.10;99.90;;;;;;5036069;28;20094;-77
2023/01/10 03:05:26;;;;;;;66.07;26.50;;;5.10;99.90;;;;;;5017820;28;20094;-77
2023/01/10 03:07:59;;;;;;;48.30;21.30;;;5.10;99.90;;;;;;5037524;28;20048;-80
2023/01/10 03:10:43;;;;;;;51.17;21.40;;;5.00;99.90;;;;;;5022350;28;20175;-78
2023/01/10 03:13:22;;;;;;;58.38;23.88;;;5.00;99.90;;;;;;5037865;28;20053;-77
2023/01/10 03:15:52;;;;;;;71.50;24.88;;;5.00;99.90;;;;;;5056424;28;20036;-77
2023/01/10 03:18:25;;;;;;;58.38;24.60;;;5.00;99.90;;;;;;5024064;28;20585;-78
2023/01/10 03:20:57;;;;;;;63.85;23.77;;;5.00;99.90;;;;;;5024069;28;20040;-78
2023/01/10 03:23:25;;;;;;;56.10;23.48;;;5.10;99.90;;;;;;5017160;28;20251;-77
2023/01/10 03:25:55;;;;;;;52.88;22.08;;;5.00;99.90;;;;;;5021873;28;20041;-77
2023/01/10 03:28:44;;;;;;;58.40;22.38;;;5.00;99.90;;;;;;5029626;28;20131;-77
2023/01/10 03:31:18;;;;;;;50.97;22.67;;;5.00;99.90;;;;;;5038530;28;20046;-77
2023/01/10 03:33:47;;;;;;;50.13;21.25;;;5.10;99.90;;;;;;5030249;28;20040;-79
2023/01/10 03:37:02;;;;;;;58.95;22.30;;;5.00;99.90;;;;;;5031677;28;20132;-78
2023/01/10 03:39:38;;;;;;;62.42;22.45;;;5.00;99.90;;;;;;4987432;28;20039;-79
2023/01/10 03:42:17;;;;;;;55.50;21.30;;;5.00;99.90;;;;;;5036315;28;20052;-78
2023/01/10 03:45:03;;;;;;;54.60;23.98;;;5.10;99.90;;;;;;5016960;28;20113;-77
2023/01/10 03:47:40;;;;;;;58.25;21.88;;;5.00;99.90;;;;;;5053042;28;20466;-77
2023/01/10 03:50:12;;;;;;;60.60;23.33;;;5.10;99.90;;;;;;5054708;28;20045;-77
2023/01/10 03:52:41;;;;;;;48.13;21.05;;;5.10;99.90;;;;;;5035940;28;20053;-76
2023/01/10 03:55:12;;;;;;;59.00;21.77;;;5.10;99.90;;;;;;5036543;28;20328;-77
2023/01/10 03:57:41;;;;;;;65.55;22.95;;;5.10;99.90;;;;;;5030326;28;20142;-77
2023/01/10 04:00:10;;;;;;;58.92;21.83;;;5.10;99.90;;;;;;5025200;28;20055;-77
2023/01/10 04:02:37;;;;;;;61.90;22.48;;;5.10;99.90;;;;;;5032957;28;20074;-77
2023/01/10 04:05:05;;;;;;;60.85;23.17;;;5.00;99.90;;;;;;5037361;28;20504;-77
2023/01/10 04:07:32;;;;;;;50.20;21.42;;;5.10;99.90;;;;;;5039902;28;20484;-77
2023/01/10 04:09:58;;;;;;;59.55;19.63;;;5.00;99.90;;;;;;5029316;28;20052;-77
2023/01/10 04:12:26;;;;;;;62.28;21.98;;;5.10;99.90;;;;;;5011567;28;20529;-77
2023/01/10 04:14:53;;;;;;;57.03;22.13;;;5.10;99.90;;;;;;5037980;28;20068;-76
2023/01/10 04:17:19;;;;;;;45.47;19.40;;;5.00;99.90;;;;;;5034995;28;20494;-80
2023/01/10 04:19:49;;;;;;;57.03;20.60;;;5.00;99.90;;;;;;5034500;28;20080;-76
2023/01/10 04:22:15;;;;;;;52.05;19.75;;;5.00;99.90;;;;;;5034543;28;20045;-78
2023/01/10 04:24:43;;;;;;;54.08;19.55;;;5.00;99.90;;;;;;5036869;28;20055;-78
2023/01/10 04:27:10;;;;;;;45.70;18.02;;;5.00;99.90;;;;;;5038440;28;20041;-77
2023/01/10 04:29:37;;;;;;;51.33;17.90;;;5.00;99.90;;;;;;5038072;28;20127;-76
2023/01/10 04:32:04;;;;;;;42.58;16.60;;;5.00;99.90;;;;;;5051530;28;20044;-76
2023/01/10 04:34:30;;;;;;;37.65;15.75;;;5.00;99.90;;;;;;5033744;28;20052;-78
2023/01/10 04:36:57;;;;;;;44.83;18.38;;;4.90;99.90;;;;;;5042497;28;20465;-76
2023/01/10 04:39:24;;;;;;;42.60;15.52;;;4.90;99.90;;;;;;5023744;28;20098;-76
2023/01/10 04:41:50;;;;;;;37.60;14.02;;;4.80;99.90;;;;;;5021216;28;20594;-77
2023/01/10 04:44:17;;;;;;;37.55;13.10;;;4.90;99.90;;;;;;5037923;28;20139;-77
2023/01/10 04:46:44;;;;;;;33.53;14.65;;;4.80;99.90;;;;;;5045029;28;20033;-76
2023/01/10 04:49:11;;;;;;;41.85;14.40;;;4.80;99.90;;;;;;5024096;28;20135;-78
2023/01/10 04:51:37;;;;;;;36.83;11.82;;;4.80;99.90;;;;;;5037926;28;20037;-76
2023/01/10 04:54:04;;;;;;;38.92;14.80;;;4.80;99.90;;;;;;5035927;28;20646;-76
2023/01/10 04:56:31;;;;;;;42.03;14.20;;;4.80;99.90;;;;;;5043441;28;20051;-77
2023/01/10 04:58:58;;;;;;;38.28;12.75;;;4.80;99.90;;;;;;5054634;28;20040;-76
2023/01/10 05:01:25;;;;;;;35.70;13.32;;;4.80;99.90;;;;;;5027967;28;20037;-76
2023/01/10 05:03:54;;;;;;;35.97;12.45;;;4.80;99.90;;;;;;5053723;28;20453;-76
2023/01/10 05:06:23;;;;;;;37.97;13.50;;;4.80;99.90;;;;;;5027556;28;20083;-78
2023/01/10 05:08:49;;;;;;;31.33;11.13;;;4.80;99.90;;;;;;5034048;28;20033;-76
2023/01/10 05:11:16;;;;;;;33.08;11.43;;;4.70;99.90;;;;;;5033829;28;20221;-76
2023/01/10 05:13:43;;;;;;;45.35;12.15;;;4.70;99.90;;;;;;5034504;28;20087;-78
2023/01/10 05:16:12;;;;;;;32.30;11.25;;;4.70;99.90;;;;;;5042287;28;20505;-77
2023/01/10 05:18:39;;;;;;;32.25;9.98;;;4.70;99.90;;;;;;5023252;28;20049;-76
2023/01/10 05:21:08;;;;;;;35.38;10.82;;;4.70;99.90;;;;;;5056816;28;20457;-77
2023/01/10 05:23:35;;;;;;;27.52;9.30;;;4.70;99.90;;;;;;5044924;28;20525;-76
2023/01/10 05:26:11;;;;;;;34.33;10.95;;;4.70;99.90;;;;;;5019203;28;20068;-76
2023/01/10 05:28:38;;;;;;;28.63;9.43;;;4.70;99.90;;;;;;5018087;28;20361;-76
2023/01/10 05:31:07;;;;;;;31.00;8.57;;;4.70;99.90;;;;;;5033181;28;20103;-77
2023/01/10 05:33:34;;;;;;;46.95;10.77;;;4.70;99.90;;;;;;5045916;28;20437;-78
2023/01/10 05:36:04;;;;;;;19.95;7.63;;;4.80;99.90;;;;;;5027633;28;20469;-76
2023/01/10 05:38:32;;;;;;;36.35;9.60;;;4.80;99.90;;;;;;5037857;28;20047;-77
2023/01/10 05:40:59;;;;;;;40.05;9.48;;;4.80;99.90;;;;;;5021307;28;20041;-76
2023/01/10 05:43:27;;;;;;;36.28;9.63;;;4.80;99.90;;;;;;5026015;28;20050;-78
2023/01/10 05:45:56;;;;;;;31.33;8.57;;;4.80;99.90;;;;;;5032810;28;20067;-76
2023/01/10 05:48:23;;;;;;;27.30;8.75;;;4.80;99.90;;;;;;5036154;28;20048;-77
2023/01/10 05:50:50;;;;;;;25.15;8.60;;;4.90;99.90;;;;;;5031400;28;20405;-77
2023/01/10 05:53:19;;;;;;;20.45;7.90;;;4.90;99.90;;;;;;5015618;28;20722;-77
2023/01/10 05:55:53;;;;;;;17.58;6.80;;;4.90;99.90;;;;;;5041378;28;20581;-77
2023/01/10 05:58:20;;;;;;;27.42;8.50;;;4.90;99.90;;;;;;5045247;28;20067;-75
2023/01/10 06:00:47;;;;;;;28.27;9.10;;;4.90;99.90;;;;;;5050571;28;20033;-75
2023/01/10 06:03:14;;;;;;;32.50;8.93;;;5.00;99.90;;;;;;5031276;28;20040;-78
2023/01/10 06:05:41;;;;;;;30.00;9.50;;;5.00;99.90;;;;;;5026363;28;20041;-75
2023/01/10 06:08:09;;;;;;;31.95;11.43;;;5.00;99.90;;;;;;5038665;28;20299;-76
2023/01/10 06:10:35;;;;;;;20.95;9.40;;;5.00;99.90;;;;;;5040460;28;20036;-78
2023/01/10 06:13:04;;;;;;;32.22;12.80;;;5.00;99.90;;;;;;5032954;28;20388;-76
2023/01/10 06:15:32;;;;;;;43.47;16.17;;;5.00;99.90;;;;;;5028088;28;20041;-77
2023/01/10 06:17:58;;;;;;;30.83;13.20;;;5.00;99.90;;;;;;5047992;28;20676;-78
2023/01/10 06:20:25;;;;;;;22.40;11.32;;;5.00;99.90;;;;;;5037213;28;20040;-77
2023/01/10 06:22:53;;;;;;;36.10;11.50;;;5.10;99.90;;;;;;5023125;28;20045;-75
2023/01/10 06:25:19;;;;;;;41.65;16.63;;;5.10;99.90;;;;;;5029315;28;20059;-78
2023/01/10 06:27:46;;;;;;;28.17;12.40;;;5.00;99.90;;;;;;5037256;28;20539;-77
2023/01/10 06:30:14;;;;;;;29.45;11.90;;;5.00;99.90;;;;;;5007515;28;20049;-75
2023/01/10 06:32:41;;;;;;;28.77;10.98;;;5.00;99.90;;;;;;5030498;28;20056;-76
2023/01/10 06:35:08;;;;;;;32.28;10.30;;;5.00;99.90;;;;;;5039434;28;20087;-77
2023/01/10 06:37:36;;;;;;;29.67;11.55;;;5.00;99.90;;;;;;5021566;28;20670;-78
2023/01/10 06:40:03;;;;;;;30.60;10.93;;;5.00;99.90;;;;;;5034370;28;20524;-77
2023/01/10 06:42:30;;;;;;;28.95;12.73;;;5.00;99.90;;;;;;5025182;28;20445;-78
2023/01/10 06:44:57;;;;;;;23.55;9.80;;;4.90;99.90;;;;;;5026596;28;20128;-75
2023/01/10 06:47:24;;;;;;;22.40;9.88;;;4.90;99.90;;;;;;5053249;28;20024;-75
2023/01/10 06:49:50;;;;;;;32.78;12.57;;;4.90;99.90;;;;;;5072372;28;20033;-78
2023/01/10 06:52:17;;;;;;;28.70;11.90;;;5.00;99.90;;;;;;5034655;28;20037;-78
2023/01/10 06:54:44;;;;;;;30.52;12.35;;;5.00;99.90;;;;;;5044991;28;20044;-78
2023/01/10 06:57:11;;;;;;;33.35;12.70;;;5.00;99.90;;;;;;5040211;28;20045;-77
2023/01/10 06:59:37;;;;;;;24.67;11.32;;;5.00;99.90;;;;;;5021327;28;20560;-77
2023/01/10 07:02:04;;;;;;;27.08;10.15;;;5.00;99.90;;;;;;5011613;28;20045;-79
2023/01/10 07:04:31;;;;;;;21.13;11.10;;;5.00;99.90;;;;;;5058408;28;20041;-76
2023/01/10 07:06:58;;;;;;;32.80;10.13;;;5.00;99.90;;;;;;5030824;28;20423;-76
2023/01/10 07:09:24;;;;;;;22.90;9.50;;;5.00;99.90;;;;;;5041604;28;20064;-78
2023/01/10 07:11:51;;;;;;;24.58;10.00;;;5.00;99.90;;;;;;5035550;28;20155;-78
2023/01/10 07:14:18;;;;;;;37.47;10.30;;;5.00;99.90;;;;;;5051635;28;20047;-79
2023/01/10 07:16:45;;;;;;;25.52;9.25;;;5.00;99.90;;;;;;5043896;28;20055;-78
2023/01/10 07:19:16;;;;;;;22.40;9.15;;;5.00;99.90;;;;;;5042386;28;20048;-77
2023/01/10 07:21:43;;;;;;;20.08;9.57;;;4.90;99.90;;;;;;5021747;28;20068;-78
2023/01/10 07:24:10;;;;;;;30.15;11.90;;;5.00;99.90;;;;;;5021921;28;20049;-77
2023/01/10 07:26:37;;;;;;;32.08;10.38;;;5.00;99.90;;;;;;5035905;28;20040;-77
2023/01/10 07:29:04;;;;;;;28.05;10.20;;;5.00;99.90;;;;;;5029643;28;20738;-78
2023/01/10 07:31:30;;;;;;;23.13;10.43;;;5.00;99.90;;;;;;5025640;28;20046;-76
2023/01/10 07:33:57;;;;;;;27.73;10.18;;;5.00;99.90;;;;;;5048567;28;20045;-78
2023/01/10 07:36:24;;;;;;;26.00;11.82;;;5.00;99.90;;;;;;5058577;28;20047;-78
2023/01/10 07:38:51;;;;;;;30.05;11.82;;;5.10;99.90;;;;;;5039174;28;20329;-77
2023/01/10 07:41:18;;;;;;;29.17;11.43;;;5.00;99.90;;;;;;5028716;28;20037;-78
2023/01/10 07:43:44;;;;;;;22.98;10.70;;;5.10;99.90;;;;;;5030049;28;20242;-78
2023/01/10 07:46:11;;;;;;;26.23;12.98;;;5.10;99.90;;;;;;5030779;28;20044;-77
2023/01/10 07:48:40;;;;;;;31.92;12.38;;;5.10;99.90;;;;;;5052540;28;20048;-77
2023/01/10 07:51:07;;;;;;;28.38;12.10;;;5.20;99.90;;;;;;5032909;28;20029;-77
2023/01/10 07:53:34;;;;;;;27.95;10.80;;;5.10;99.90;;;;;;5039925;28;20068;-78
2023/01/10 07:56:02;;;;;;;27.90;11.77;;;5.10;99.90;;;;;;5022197;28;20131;-78
2023/01/10 07:58:29;;;;;;;26.35;11.50;;;5.10;99.90;;;;;;5033071;28;20533;-78
2023/01/10 08:01:01;;;;;;;27.52;10.20;;;5.10;99.90;;;;;;5015276;28;20041;-77
2023/01/10 08:03:28;;;;;;;28.20;9.32;;;5.10;99.90;;;;;;5038205;28;20037;-78
2023/01/10 08:06:00;;;;;;;29.20;9.55;;;5.10;99.90;;;;;;5012077;28;20215;-76
2023/01/10 08:08:27;;;;;;;19.30;9.32;;;5.10;99.90;;;;;;5029419;28;20053;-78
2023/01/10 08:10:54;;;;;;;25.10;11.27;;;5.10;99.90;;;;;;5028610;28;20094;-77
2023/01/10 08:13:23;;;;;;;39.47;11.43;;;5.10;99.90;;;;;;5014610;28;20056;-77
2023/01/10 08:15:51;;;;;;;30.88;11.25;;;5.10;99.90;;;;;;5038303;28;20035;-77
2023/01/10 08:18:19;;;;;;;29.77;12.93;;;5.10;99.90;;;;;;5015846;28;20053;-78
2023/01/10 08:20:48;;;;;;;27.85;13.60;;;5.20;99.90;;;;;;5042203;28;20643;-77
2023/01/10 08:23:15;;;;;;;25.40;13.18;;;5.20;99.90;;;;;;5011079;28;20056;-77
2023/01/10 08:25:43;;;;;;;37.33;12.88;;;5.20;99.90;;;;;;5038685;28;20040;-80
2023/01/10 08:28:10;;;;;;;28.65;11.52;;;5.20;99.90;;;;;;5037915;28;20041;-78
2023/01/10 08:30:37;;;;;;;28.23;11.60;;;5.20;99.90;;;;;;5030285;28;20041;-76
2023/01/10 08:33:06;;;;;;;29.85;12.38;;;5.20;99.90;;;;;;5050824;28;20029;-78
2023/01/10 08:35:42;;;;;;;29.52;14.02;;;5.20;99.90;;;;;;5038336;28;20040;-78
2023/01/10 08:38:10;;;;;;;32.05;17.38;;;5.20;99.90;;;;;;5022405;28;20041;-76
2023/01/10 08:40:37;;;;;;;47.45;21.45;;;5.20;99.90;;;;;;5038455;28;20048;-79
2023/01/10 08:43:06;;;;;;;33.05;15.38;;;5.20;99.90;;;;;;5027503;28;20037;-77
2023/01/10 08:45:33;;;;;;;34.33;15.73;;;5.20;99.90;;;;;;5058565;28;20071;-79
2023/01/10 08:48:00;;;;;;;39.55;16.05;;;5.20;99.90;;;;;;5029064;28;20128;-78
2023/01/10 08:50:27;;;;;;;25.17;15.13;;;5.30;99.90;;;;;;5029496;28;20108;-78
2023/01/10 08:52:59;;;;;;;26.48;15.20;;;5.20;99.90;;;;;;5035151;28;20052;-76
2023/01/10 08:55:27;;;;;;;30.67;15.52;;;5.30;99.90;;;;;;5014814;28;20059;-78
2023/01/10 08:57:54;;;;;;;44.53;18.60;;;5.20;99.90;;;;;;5017138;28;20406;-77
2023/01/10 09:00:21;;;;;;;32.00;17.50;;;5.30;99.90;;;;;;5035854;28;20060;-77
2023/01/10 09:02:48;;;;;;;37.83;17.67;;;5.30;99.90;;;;;;5004279;28;20508;-77
2023/01/10 09:05:15;;;;;;;39.55;20.48;;;5.20;99.90;;;;;;5032002;28;20045;-75
2023/01/10 09:07:58;;;;;;;54.30;21.08;;;5.20;99.90;;;;;;5020515;28;20041;-77
2023/01/10 09:10:26;;;;;;;42.15;21.00;;;5.30;99.90;;;;;;5025051;28;20055;-78
2023/01/10 09:12:55;;;;;;;51.90;23.67;;;5.30;99.90;;;;;;5020029;28;20048;-77
2023/01/10 09:15:25;;;;;;;38.55;17.08;;;5.30;99.90;;;;;;5031537;28;20056;-77
2023/01/10 09:17:53;;;;;;;39.85;18.83;;;5.30;99.90;;;;;;5036016;28;20060;-76
2023/01/10 09:20:21;;;;;;;47.58;20.35;;;5.30;99.90;;;;;;5038001;28;20053;-78
2023/01/10 09:22:48;;;;;;;48.83;24.75;;;5.30;99.90;;;;;;5024582;28;20045;-76
2023/01/10 09:25:15;;;;;;;43.00;20.08;;;5.30;99.90;;;;;;5000033;28;20379;-77
2023/01/10 09:27:42;;;;;;;40.50;17.20;;;5.30;99.90;;;;;;5031779;28;20063;-76
2023/01/10 09:30:09;;;;;;;44.00;19.70;;;5.30;99.90;;;;;;5028634;28;20040;-77
2023/01/10 09:32:36;;;;;;;45.67;21.55;;;5.20;99.90;;;;;;5028095;28;20041;-77
2023/01/10 09:35:03;;;;;;;51.08;20.73;;;5.20;99.90;;;;;;5032718;28;20052;-77
2023/01/10 09:37:32;;;;;;;51.70;22.27;;;5.30;99.90;;;;;;5025782;28;20046;-78
2023/01/10 09:39:59;;;;;;;55.50;22.42;;;5.30;99.90;;;;;;5029302;28;20076;-77
2023/01/10 09:42:50;;;;;;;43.15;19.42;;;5.20;99.90;;;;;;5020067;28;20131;-77
2023/01/10 09:45:42;;;;;;;54.20;28.70;;;5.20;99.90;;;;;;5026443;28;20044;-78
2023/01/10 09:48:23;;;;;;;38.80;18.38;;;5.20;99.90;;;;;;5036400;28;20109;-76
2023/01/10 09:51:08;;;;;;;47.85;21.63;;;5.20;99.90;;;;;;5043263;28;20127;-77
2023/01/10 09:53:40;;;;;;;43.50;21.35;;;5.30;99.90;;;;;;5032677;28;20041;-76
2023/01/10 09:56:08;;;;;;;36.83;22.00;;;5.30;99.90;;;;;;5019865;28;20047;-78
2023/01/10 09:58:37;;;;;;;50.67;21.38;;;5.40;99.90;;;;;;5037242;28;20104;-79
2023/01/10 10:01:09;;;;;;;34.22;19.02;;;5.40;99.90;;;;;;5053500;28;20127;-77
2023/01/10 10:03:45;;;;;;;45.78;21.38;;;5.40;99.90;;;;;;5025751;28;20037;-78
2023/01/10 10:06:13;;;;;;;53.03;19.73;;;5.40;99.90;;;;;;5038189;28;20123;-77
2023/01/10 10:08:45;;;;;;;41.53;20.65;;;5.50;99.90;;;;;;5044339;28;20070;-77
2023/01/10 10:11:24;;;;;;;40.55;24.13;;;5.50;99.90;;;;;;5033117;28;20041;-77
2023/01/10 10:14:19;;;;;;;51.05;23.35;;;5.50;99.90;;;;;;5036581;28;20375;-77
2023/01/10 10:16:46;;;;;;;54.30;26.35;;;5.50;99.90;;;;;;5020568;28;20104;-77
2023/01/10 10:19:51;;;;;;;44.22;22.13;;;5.50;99.90;;;;;;5018040;28;20050;-77
2023/01/10 10:22:46;;;;;;;39.55;21.73;;;5.60;99.90;;;;;;4938137;28;20050;-77
2023/01/10 10:25:27;;;;;;;36.35;20.27;;;5.60;99.90;;;;;;4949236;28;20139;-77
2023/01/10 10:27:54;;;;;;;26.50;19.90;;;5.60;99.90;;;;;;5040716;28;20108;-77
2023/01/10 10:30:34;;;;;;;46.88;22.52;;;5.60;99.90;;;;;;5029363;28;20049;-76
2023/01/10 10:33:26;;;;;;;35.97;23.42;;;5.60;99.90;;;;;;5035328;28;20094;-77
2023/01/10 10:36:02;;;;;;;35.13;22.98;;;5.70;99.90;;;;;;5029979;28;20128;-76
2023/01/10 10:38:33;;;;;;;36.38;23.73;;;5.70;99.90;;;;;;5026750;28;20067;-76
2023/01/10 10:41:00;;;;;;;47.33;24.27;;;5.70;99.90;;;;;;5037252;28;20067;-76
2023/01/10 10:43:35;;;;;;;40.15;23.98;;;5.70;99.90;;;;;;5021251;28;20102;-76
2023/01/10 10:46:12;;;;;;;36.58;23.80;;;5.70;99.90;;;;;;5031777;28;20121;-76
2023/01/10 10:48:43;;;;;;;41.38;22.98;;;5.70;99.90;;;;;;5010241;28;20045;-77
2023/01/10 10:51:18;;;;;;;39.38;23.75;;;5.70;99.90;;;;;;5020282;28;20470;-76
2023/01/10 10:53:46;;;;;;;31.70;24.55;;;5.70;99.90;;;;;;5036209;28;20136;-78
2023/01/10 10:56:16;;;;;;;36.67;23.73;;;5.70;99.90;;;;;;5033600;28;20131;-77
2023/01/10 10:58:47;;;;;;;46.65;26.77;;;5.70;99.90;;;;;;5029622;28;20049;-76
2023/01/10 11:01:15;;;;;;;41.47;24.17;;;5.70;99.90;;;;;;5032376;28;20128;-77
2023/01/10 11:03:50;;;;;;;34.95;21.90;;;5.80;99.90;;;;;;5031005;28;20080;-77
2023/01/10 11:06:19;;;;;;;40.28;23.33;;;5.80;99.90;;;;;;5024807;28;20053;-78
2023/01/10 11:08:48;;;;;;;38.00;26.35;;;5.80;99.90;;;;;;5033414;28;20393;-76
2023/01/10 11:11:32;;;;;;;51.85;27.42;;;5.80;99.90;;;;;;5015372;28;20044;-77
2023/01/10 11:14:03;;;;;;;42.13;24.98;;;5.80;99.90;;;;;;5041595;28;20131;-76
2023/01/10 11:16:32;;;;;;;41.88;26.60;;;5.80;99.90;;;;;;5012439;28;20040;-77
2023/01/10 11:19:23;;;;;;;41.58;24.88;;;5.80;99.90;;;;;;5037409;28;20060;-76
2023/01/10 11:22:00;;;;;;;43.13;24.63;;;5.90;99.90;;;;;;5032647;28;20531;-76
2023/01/10 11:24:33;;;;;;;41.85;25.20;;;5.80;99.90;;;;;;5029990;28;20068;-76
2023/01/10 11:27:20;;;;;;;39.50;25.15;;;5.90;99.90;;;;;;5017322;28;20127;-77
2023/01/10 11:29:50;;;;;;;39.50;26.60;;;5.90;99.90;;;;;;5024130;28;20041;-76
2023/01/10 11:32:21;;;;;;;36.90;26.27;;;5.90;99.90;;;;;;5035885;28;20263;-76
2023/01/10 11:34:54;;;;;;;33.75;25.20;;;6.00;99.90;;;;;;5019986;28;20049;-76
2023/01/10 11:37:30;;;;;;;49.65;28.50;;;5.90;99.90;;;;;;5025830;28;20044;-76
2023/01/10 11:40:13;;;;;;;45.45;26.95;;;5.90;99.90;;;;;;5034910;28;20068;-75
2023/01/10 11:42:40;;;;;;;43.75;25.90;;;6.10;99.90;;;;;;5027972;28;20052;-77
2023/01/10 11:45:16;;;;;;;32.30;28.70;;;6.00;99.90;;;;;;5033181;28;20044;-76
2023/01/10 11:47:46;;;;;;;31.10;27.13;;;5.90;99.90;;;;;;5045913;28;20138;-77
2023/01/10 11:50:20;;;;;;;32.38;26.92;;;6.00;99.90;;;;;;5018942;28;20072;-75
2023/01/10 11:52:48;;;;;;;53.83;29.47;;;6.00;99.90;;;;;;5024785;28;20803;-77
2023/01/10 11:55:27;;;;;;;31.95;27.15;;;6.10;99.90;;;;;;5023526;28;20417;-77
2023/01/10 11:58:11;;;;;;;48.45;29.23;;;6.10;99.90;;;;;;5032876;28;20173;-77
2023/01/10 12:00:48;;;;;;;33.80;28.27;;;6.10;99.90;;;;;;5038760;28;20044;-77
2023/01/10 12:03:25;;;;;;;39.20;29.75;;;6.00;99.90;;;;;;5027489;28;20053;-76
2023/01/10 12:05:55;;;;;;;39.45;28.58;;;6.10;99.90;;;;;;5036723;28;20063;-75
2023/01/10 12:08:37;;;;;;;32.50;29.13;;;6.10;99.90;;;;;;5027648;28;20044;-76
2023/01/10 12:11:10;;;;;;;46.17;28.52;;;6.10;99.90;;;;;;5029102;28;20563;-78
2023/01/10 12:13:50;;;;;;;31.17;27.80;;;6.10;99.90;;;;;;5037511;28;20048;-76
2023/01/10 12:16:29;;;;;;;38.95;29.75;;;6.00;99.90;;;;;;5010362;28;20574;-77
2023/01/10 12:18:59;;;;;;;37.92;29.95;;;6.10;99.90;;;;;;5024798;28;20041;-77
2023/01/10 12:21:29;;;;;;;32.97;29.35;;;6.20;99.90;;;;;;5027361;28;20131;-76
2023/01/10 12:24:01;;;;;;;35.78;31.13;;;6.30;99.90;;;;;;5028490;28;20664;-77
2023/01/10 12:26:32;;;;;;;38.00;33.60;;;6.20;99.90;;;;;;5020068;28;20071;-77
2023/01/10 12:29:07;;;;;;;33.90;30.90;;;6.20;99.90;;;;;;5027539;28;20044;-77
2023/01/10 12:31:37;;;;;;;40.55;31.70;;;6.20;99.90;;;;;;5039037;28;20616;-78
2023/01/10 12:34:15;;;;;;;40.42;29.50;;;6.20;99.90;;;;;;5036264;28;20093;-74
2023/01/10 12:36:48;;;;;;;35.97;28.80;;;6.20;99.90;;;;;;5016803;28;20472;-78
2023/01/10 12:39:19;;;;;;;34.60;28.15;;;6.20;99.90;;;;;;5014830;28;20133;-76
2023/01/10 12:44:36;;;;;;;50.22;28.77;;;6.10;99.90;;;;;;5021599;28;20080;-77
2023/01/10 12:47:15;;;;;;;30.13;27.00;;;6.10;99.90;;;;;;5039421;28;20372;-80
2023/01/10 12:50:04;;;;;;;36.15;26.95;;;6.20;99.90;;;;;;5032151;28;20072;-79
2023/01/10 12:52:44;;;;;;;35.70;26.38;;;6.20;99.90;;;;;;5029461;28;20040;-78
2023/01/10 12:55:41;;;;;;;36.28;28.15;;;6.10;99.90;;;;;;5035544;28;20060;-77
2023/01/10 12:58:16;;;;;;;30.65;26.95;;;6.10;99.90;;;;;;5026129;28;20048;-76
2023/01/10 13:00:48;;;;;;;36.30;27.30;;;6.20;99.90;;;;;;5019515;28;20041;-76
2023/01/10 13:03:19;;;;;;;29.95;26.85;;;6.20;99.90;;;;;;5051394;28;20049;-77
2023/01/10 13:05:48;;;;;;;29.30;26.15;;;6.20;99.90;;;;;;5012362;28;20068;-77
2023/01/10 13:08:19;;;;;;;28.50;26.05;;;6.10;99.90;;;;;;5027705;28;20112;-78